sensor_id;sensor_type;location;lat;lon;timestamp;temperature;humidity
67752;DHT22;54551;51.068;5.826;2022-12-05T00:01:33;3.30;99.90
67752;DHT22;54551;51.068;5.826;2022-12-05T00:04:03;3.30;99.90
67752;DHT22;54551;51.068;5.826;2022-12-05T00:06:30;3.30;99.90
67752;DHT22;54551;51.068;5.826;2022-12-05T00:08:57;3.20;99.90
67752;DHT22;54551;51.068;5.826;2022-12-05T00:11:29;3.30;99.90
67752;DHT22;54551;51.068;5.826;2022-12-05T00:13:59;3.20;99.90
67752;DHT22;54551;51.068;5.826;2022-12-05T00:16:27;3.30;99.90
67752;DHT22;54551;51.068;5.826;2022-12-05T00:18:53;3.30;99.90
67752;DHT22;54551;51.068;5.826;2022-12-05T00:21:22;3.40;99.90
67752;DHT22;54551;51.068;5.826;2022-12-05T00:23:49;3.40;99.90
67752;DHT22;54551;51.068;5.826;2022-12-05T00:26:15;3.40;99.90
67752;DHT22;54551;51.068;5.826;2022-12-05T00:28:42;3.50;99.90
67752;DHT22;54551;51.068;5.826;2022-12-05T00:31:10;3.40;99.90
67752;DHT22;54551;51.068;5.826;2022-12-05T00:33:36;3.40;99.90
67752;DHT22;54551;51.068;5.826;2022-12-05T00:36:11;3.30;99.90
67752;DHT22;54551;51.068;5.826;2022-12-05T00:38:38;3.50;99.90
67752;DHT22;54551;51.068;5.826;2022-12-05T00:41:13;3.60;99.90
67752;DHT22;54551;51.068;5.826;2022-12-05T00:43:39;3.70;99.90
67752;DHT22;54551;51.068;5.826;2022-12-05T00:46:08;3.70;99.90
67752;DHT22;54551;51.068;5.826;2022-12-05T00:48:35;3.70;99.90
67752;DHT22;54551;51.068;5.826;2022-12-05T00:51:16;3.60;99.90
67752;DHT22;54551;51.068;5.826;2022-12-05T00:53:43;3.60;99.90
67752;DHT22;54551;51.068;5.826;2022-12-05T00:56:12;3.70;99.90
67752;DHT22;54551;51.068;5.826;2022-12-05T00:58:38;3.70;99.90
67752;DHT22;54551;51.068;5.826;2022-12-05T01:01:16;3.60;99.90
67752;DHT22;54551;51.068;5.826;2022-12-05T01:03:43;3.60;99.90
67752;DHT22;54551;51.068;5.826;2022-12-05T01:06:11;3.50;99.90
67752;DHT22;54551;51.068;5.826;2022-12-05T01:08:37;3.60;99.90
67752;DHT22;54551;51.068;5.826;2022-12-05T01:11:04;3.70;99.90
67752;DHT22;54551;51.068;5.826;2022-12-05T01:13:31;3.70;99.90
67752;DHT22;54551;51.068;5.826;2022-12-05T01:15:57;3.70;99.90
67752;DHT22;54551;51.068;5.826;2022-12-05T01:18:24;3.70;99.90
67752;DHT22;54551;51.068;5.826;2022-12-05T01:20:50;3.70;99.90
67752;DHT22;54551;51.068;5.826;2022-12-05T01:23:17;3.70;99.90
67752;DHT22;54551;51.068;5.826;2022-12-05T01:25:45;3.70;99.90
67752;DHT22;54551;51.068;5.826;2022-12-05T01:28:13;3.80;99.90
67752;DHT22;54551;51.068;5.826;2022-12-05T01:30:41;3.90;99.90
67752;DHT22;54551;51.068;5.826;2022-12-05T01:33:07;3.90;99.90
67752;DHT22;54551;51.068;5.826;2022-12-05T01:35:36;4.00;99.90
67752;DHT22;54551;51.068;5.826;2022-12-05T01:38:03;4.00;99.90
67752;DHT22;54551;51.068;5.826;2022-12-05T01:40:29;3.90;99.90
67752;DHT22;54551;51.068;5.826;2022-12-05T01:42:55;3.90;99.90
67752;DHT22;54551;51.068;5.826;2022-12-05T01:45:34;4.00;99.90
67752;DHT22;54551;51.068;5.826;2022-12-05T01:48:04;3.80;99.90
67752;DHT22;54551;51.068;5.826;2022-12-05T01:50:32;3.80;99.90
67752;DHT22;54551;51.068;5.826;2022-12-05T01:52:59;3.90;99.90
67752;DHT22;54551;51.068;5.826;2022-12-05T01:55:25;4.00;99.90
67752;DHT22;54551;51.068;5.826;2022-12-05T01:57:52;4.10;99.90
67752;DHT22;54551;51.068;5.826;2022-12-05T02:00:20;4.10;99.90
67752;DHT22;54551;51.068;5.826;2022-12-05T02:02:50;4.20;99.90
67752;DHT22;54551;51.068;5.826;2022-12-05T02:05:24;4.10;99.90
67752;DHT22;54551;51.068;5.826;2022-12-05T02:07:52;4.10;99.90
67752;DHT22;54551;51.068;5.826;2022-12-05T02:10:18;4.10;99.90
67752;DHT22;54551;51.068;5.826;2022-12-05T02:12:44;4.10;99.90
67752;DHT22;54551;51.068;5.826;2022-12-05T02:18:05;4.10;99.90
67752;DHT22;54551;51.068;5.826;2022-12-05T02:23:26;4.10;99.90
67752;DHT22;54551;51.068;5.826;2022-12-05T02:37:04;4.00;99.90
67752;DHT22;54551;51.068;5.826;2022-12-05T02:44:51;4.10;99.90
67752;DHT22;54551;51.068;5.826;2022-12-05T02:47:21;4.10;99.90
67752;DHT22;54551;51.068;5.826;2022-12-05T02:49:50;4.00;99.90
67752;DHT22;54551;51.068;5.826;2022-12-05T02:52:17;4.00;99.90
67752;DHT22;54551;51.068;5.826;2022-12-05T02:54:45;3.90;99.90
67752;DHT22;54551;51.068;5.826;2022-12-05T02:57:13;3.90;99.90
67752;DHT22;54551;51.068;5.826;2022-12-05T02:59:40;3.80;99.90
67752;DHT22;54551;51.068;5.826;2022-12-05T03:02:07;3.80;99.90
67752;DHT22;54551;51.068;5.826;2022-12-05T03:04:34;3.80;99.90
67752;DHT22;54551;51.068;5.826;2022-12-05T03:07:06;3.90;99.90
67752;DHT22;54551;51.068;5.826;2022-12-05T03:09:43;4.00;99.90
67752;DHT22;54551;51.068;5.826;2022-12-05T03:12:24;4.00;99.90
67752;DHT22;54551;51.068;5.826;2022-12-05T03:15:04;4.00;99.90
67752;DHT22;54551;51.068;5.826;2022-12-05T03:17:39;4.00;99.90
67752;DHT22;54551;51.068;5.826;2022-12-05T03:25:29;3.90;99.90
67752;DHT22;54551;51.068;5.826;2022-12-05T03:28:24;4.00;99.90
67752;DHT22;54551;51.068;5.826;2022-12-05T03:30:55;4.00;99.90
67752;DHT22;54551;51.068;5.826;2022-12-05T03:33:28;4.10;99.90
67752;DHT22;54551;51.068;5.826;2022-12-05T03:36:12;4.10;99.90
67752;DHT22;54551;51.068;5.826;2022-12-05T03:39:26;4.00;99.90
67752;DHT22;54551;51.068;5.826;2022-12-05T03:41:58;4.00;99.90
67752;DHT22;54551;51.068;5.826;2022-12-05T03:44:33;3.90;99.90
67752;DHT22;54551;51.068;5.826;2022-12-05T03:50:25;3.80;99.90
67752;DHT22;54551;51.068;5.826;2022-12-05T03:53:16;3.80;99.90
67752;DHT22;54551;51.068;5.826;2022-12-05T03:55:46;3.70;99.90
67752;DHT22;54551;51.068;5.826;2022-12-05T03:58:25;3.60;99.90
67752;DHT22;54551;51.068;5.826;2022-12-05T04:00:56;3.60;99.90
67752;DHT22;54551;51.068;5.826;2022-12-05T04:03:32;3.40;99.90
67752;DHT22;54551;51.068;5.826;2022-12-05T04:06:09;3.50;99.90
67752;DHT22;54551;51.068;5.826;2022-12-05T04:08:46;3.50;99.90
67752;DHT22;54551;51.068;5.826;2022-12-05T04:11:16;3.50;99.90
67752;DHT22;54551;51.068;5.826;2022-12-05T04:13:47;3.50;99.90
67752;DHT22;54551;51.068;5.826;2022-12-05T04:22:25;3.50;99.90
67752;DHT22;54551;51.068;5.826;2022-12-05T04:24:53;3.50;99.90
67752;DHT22;54551;51.068;5.826;2022-12-05T04:30:19;3.40;99.90
67752;DHT22;54551;51.068;5.826;2022-12-05T04:35:25;3.30;99.90
67752;DHT22;54551;51.068;5.826;2022-12-05T04:37:57;3.30;99.90
67752;DHT22;54551;51.068;5.826;2022-12-05T04:40:39;3.30;99.90
67752;DHT22;54551;51.068;5.826;2022-12-05T04:43:07;3.40;99.90
67752;DHT22;54551;51.068;5.826;2022-12-05T04:45:36;3.30;99.90
67752;DHT22;54551;51.068;5.826;2022-12-05T04:48:09;3.40;99.90
67752;DHT22;54551;51.068;5.826;2022-12-05T04:50:37;3.40;99.90
67752;DHT22;54551;51.068;5.826;2022-12-05T04:53:03;3.50;99.90
67752;DHT22;54551;51.068;5.826;2022-12-05T04:55:32;3.50;99.90
67752;DHT22;54551;51.068;5.826;2022-12-05T04:58:14;3.40;99.90
67752;DHT22;54551;51.068;5.826;2022-12-05T05:04:00;3.60;99.90
67752;DHT22;54551;51.068;5.826;2022-12-05T05:06:27;3.50;99.90
67752;DHT22;54551;51.068;5.826;2022-12-05T05:08:56;3.60;99.90
67752;DHT22;54551;51.068;5.826;2022-12-05T05:11:31;3.70;99.90
67752;DHT22;54551;51.068;5.826;2022-12-05T05:13:58;3.70;99.90
67752;DHT22;54551;51.068;5.826;2022-12-05T05:16:28;3.70;99.90
67752;DHT22;54551;51.068;5.826;2022-12-05T05:18:54;3.80;99.90
67752;DHT22;54551;51.068;5.826;2022-12-05T05:21:32;3.80;99.90
67752;DHT22;54551;51.068;5.826;2022-12-05T05:23:59;3.70;99.90
67752;DHT22;54551;51.068;5.826;2022-12-05T05:26:26;3.80;99.90
67752;DHT22;54551;51.068;5.826;2022-12-05T05:28:52;3.90;99.90
67752;DHT22;54551;51.068;5.826;2022-12-05T05:31:19;4.00;99.90
67752;DHT22;54551;51.068;5.826;2022-12-05T05:33:53;4.00;99.90
67752;DHT22;54551;51.068;5.826;2022-12-05T05:36:20;4.10;99.90
67752;DHT22;54551;51.068;5.826;2022-12-05T05:38:50;4.10;99.90
67752;DHT22;54551;51.068;5.826;2022-12-05T05:41:22;4.10;99.90
67752;DHT22;54551;51.068;5.826;2022-12-05T05:43:48;4.10;99.90
67752;DHT22;54551;51.068;5.826;2022-12-05T05:46:16;4.10;99.90
67752;DHT22;54551;51.068;5.826;2022-12-05T05:48:42;4.10;99.90
67752;DHT22;54551;51.068;5.826;2022-12-05T05:51:10;4.20;99.90
67752;DHT22;54551;51.068;5.826;2022-12-05T05:53:37;4.10;99.90
67752;DHT22;54551;51.068;5.826;2022-12-05T05:56:04;4.20;99.90
67752;DHT22;54551;51.068;5.826;2022-12-05T05:58:30;4.20;99.90
67752;DHT22;54551;51.068;5.826;2022-12-05T06:01:08;4.20;99.90
67752;DHT22;54551;51.068;5.826;2022-12-05T06:03:35;4.20;99.90
67752;DHT22;54551;51.068;5.826;2022-12-05T06:06:03;4.30;99.90
67752;DHT22;54551;51.068;5.826;2022-12-05T06:08:31;4.20;99.90
67752;DHT22;54551;51.068;5.826;2022-12-05T06:10:58;4.20;99.90
67752;DHT22;54551;51.068;5.826;2022-12-05T06:13:23;4.20;99.90
67752;DHT22;54551;51.068;5.826;2022-12-05T06:15:49;4.20;99.90
67752;DHT22;54551;51.068;5.826;2022-12-05T06:18:15;4.30;99.90
67752;DHT22;54551;51.068;5.826;2022-12-05T06:20:41;4.30;99.90
67752;DHT22;54551;51.068;5.826;2022-12-05T06:23:07;4.20;99.90
67752;DHT22;54551;51.068;5.826;2022-12-05T06:25:33;4.20;99.90
67752;DHT22;54551;51.068;5.826;2022-12-05T06:27:59;4.30;99.90
67752;DHT22;54551;51.068;5.826;2022-12-05T06:30:24;4.30;99.90
67752;DHT22;54551;51.068;5.826;2022-12-05T06:32:50;4.30;99.90
67752;DHT22;54551;51.068;5.826;2022-12-05T06:35:16;4.30;99.90
67752;DHT22;54551;51.068;5.826;2022-12-05T06:37:43;4.30;99.90
67752;DHT22;54551;51.068;5.826;2022-12-05T06:40:13;4.20;99.90
67752;DHT22;54551;51.068;5.826;2022-12-05T06:42:39;4.20;99.90
67752;DHT22;54551;51.068;5.826;2022-12-05T06:45:05;4.20;99.90
67752;DHT22;54551;51.068;5.826;2022-12-05T06:47:31;4.10;99.90
67752;DHT22;54551;51.068;5.826;2022-12-05T06:49:57;4.10;99.90
67752;DHT22;54551;51.068;5.826;2022-12-05T06:52:23;4.00;99.90
67752;DHT22;54551;51.068;5.826;2022-12-05T06:54:48;4.00;99.90
67752;DHT22;54551;51.068;5.826;2022-12-05T06:57:15;3.90;99.90
67752;DHT22;54551;51.068;5.826;2022-12-05T06:59:41;3.90;99.90
67752;DHT22;54551;51.068;5.826;2022-12-05T07:02:09;3.90;99.90
67752;DHT22;54551;51.068;5.826;2022-12-05T07:04:35;3.90;99.90
67752;DHT22;54551;51.068;5.826;2022-12-05T07:07:01;3.90;99.90
67752;DHT22;54551;51.068;5.826;2022-12-05T07:09:27;3.90;99.90
67752;DHT22;54551;51.068;5.826;2022-12-05T07:12:17;3.90;99.90
67752;DHT22;54551;51.068;5.826;2022-12-05T07:14:44;3.80;99.90
67752;DHT22;54551;51.068;5.826;2022-12-05T07:17:10;3.80;99.90
67752;DHT22;54551;51.068;5.826;2022-12-05T07:19:36;3.80;99.90
67752;DHT22;54551;51.068;5.826;2022-12-05T07:22:02;3.80;99.90
67752;DHT22;54551;51.068;5.826;2022-12-05T07:24:28;3.80;99.90
67752;DHT22;54551;51.068;5.826;2022-12-05T07:26:54;3.90;99.90
67752;DHT22;54551;51.068;5.826;2022-12-05T07:29:20;3.90;99.90
67752;DHT22;54551;51.068;5.826;2022-12-05T07:31:46;3.90;99.90
67752;DHT22;54551;51.068;5.826;2022-12-05T07:34:11;3.90;99.90
67752;DHT22;54551;51.068;5.826;2022-12-05T07:36:37;3.90;99.90
67752;DHT22;54551;51.068;5.826;2022-12-05T07:39:03;3.90;99.90
67752;DHT22;54551;51.068;5.826;2022-12-05T07:41:31;3.90;99.90
67752;DHT22;54551;51.068;5.826;2022-12-05T07:43:58;3.90;99.90
67752;DHT22;54551;51.068;5.826;2022-12-05T07:46:26;3.80;99.90
67752;DHT22;54551;51.068;5.826;2022-12-05T07:48:52;3.80;99.90
67752;DHT22;54551;51.068;5.826;2022-12-05T07:51:18;3.80;99.90
67752;DHT22;54551;51.068;5.826;2022-12-05T07:53:45;3.80;99.90
67752;DHT22;54551;51.068;5.826;2022-12-05T07:56:13;3.90;99.90
67752;DHT22;54551;51.068;5.826;2022-12-05T07:58:42;3.80;99.90
67752;DHT22;54551;51.068;5.826;2022-12-05T08:01:14;3.80;99.90
67752;DHT22;54551;51.068;5.826;2022-12-05T08:03:41;3.90;99.90
67752;DHT22;54551;51.068;5.826;2022-12-05T08:06:13;3.80;99.90
67752;DHT22;54551;51.068;5.826;2022-12-05T08:08:39;3.80;99.90
67752;DHT22;54551;51.068;5.826;2022-12-05T08:11:07;3.80;99.90
67752;DHT22;54551;51.068;5.826;2022-12-05T08:13:34;3.80;99.90
67752;DHT22;54551;51.068;5.826;2022-12-05T08:16:05;3.90;99.90
67752;DHT22;54551;51.068;5.826;2022-12-05T08:18:32;3.90;99.90
67752;DHT22;54551;51.068;5.826;2022-12-05T08:21:06;3.90;99.90
67752;DHT22;54551;51.068;5.826;2022-12-05T08:23:33;3.90;99.90
67752;DHT22;54551;51.068;5.826;2022-12-05T08:26:10;3.90;99.90
67752;DHT22;54551;51.068;5.826;2022-12-05T08:28:37;4.00;99.90
67752;DHT22;54551;51.068;5.826;2022-12-05T08:31:08;4.00;99.90
67752;DHT22;54551;51.068;5.826;2022-12-05T08:33:34;4.00;99.90
67752;DHT22;54551;51.068;5.826;2022-12-05T08:36:05;4.00;99.90
67752;DHT22;54551;51.068;5.826;2022-12-05T08:38:32;4.00;99.90
67752;DHT22;54551;51.068;5.826;2022-12-05T08:41:12;4.00;99.90
67752;DHT22;54551;51.068;5.826;2022-12-05T08:43:38;4.00;99.90
67752;DHT22;54551;51.068;5.826;2022-12-05T08:46:05;4.00;99.90
67752;DHT22;54551;51.068;5.826;2022-12-05T08:48:32;4.10;99.90
67752;DHT22;54551;51.068;5.826;2022-12-05T08:50:58;4.20;99.90
67752;DHT22;54551;51.068;5.826;2022-12-05T08:53:26;4.20;99.90
67752;DHT22;54551;51.068;5.826;2022-12-05T08:55:52;4.20;99.90
67752;DHT22;54551;51.068;5.826;2022-12-05T08:58:17;4.30;99.90
67752;DHT22;54551;51.068;5.826;2022-12-05T09:00:43;4.30;99.90
67752;DHT22;54551;51.068;5.826;2022-12-05T09:03:10;4.40;99.90
67752;DHT22;54551;51.068;5.826;2022-12-05T09:05:36;4.30;99.90
67752;DHT22;54551;51.068;5.826;2022-12-05T09:08:02;4.40;99.90
67752;DHT22;54551;51.068;5.826;2022-12-05T09:10:29;4.30;99.90
67752;DHT22;54551;51.068;5.826;2022-12-05T09:12:55;4.30;99.90
67752;DHT22;54551;51.068;5.826;2022-12-05T09:15:21;4.30;99.90
67752;DHT22;54551;51.068;5.826;2022-12-05T09:17:47;4.30;99.90
67752;DHT22;54551;51.068;5.826;2022-12-05T09:20:13;4.30;99.90
67752;DHT22;54551;51.068;5.826;2022-12-05T09:22:40;4.30;99.90
67752;DHT22;54551;51.068;5.826;2022-12-05T09:25:06;4.30;99.90
67752;DHT22;54551;51.068;5.826;2022-12-05T09:27:32;4.20;99.90
67752;DHT22;54551;51.068;5.826;2022-12-05T09:29:58;4.20;99.90
67752;DHT22;54551;51.068;5.826;2022-12-05T09:32:24;4.30;99.90
67752;DHT22;54551;51.068;5.826;2022-12-05T09:34:50;4.30;99.90
67752;DHT22;54551;51.068;5.826;2022-12-05T09:37:15;4.30;99.90
67752;DHT22;54551;51.068;5.826;2022-12-05T09:39:43;4.40;99.90
67752;DHT22;54551;51.068;5.826;2022-12-05T09:55:39;4.60;99.90
67752;DHT22;54551;51.068;5.826;2022-12-05T10:00:52;4.50;99.90
67752;DHT22;54551;51.068;5.826;2022-12-05T10:03:36;4.60;99.90
67752;DHT22;54551;51.068;5.826;2022-12-05T10:09:04;4.50;99.90
67752;DHT22;54551;51.068;5.826;2022-12-05T10:11:40;4.50;99.90
67752;DHT22;54551;51.068;5.826;2022-12-05T10:16:53;4.50;99.90
67752;DHT22;54551;51.068;5.826;2022-12-05T10:19:29;4.60;99.90
67752;DHT22;54551;51.068;5.826;2022-12-05T10:25:04;4.60;99.90
67752;DHT22;54551;51.068;5.826;2022-12-05T10:27:48;4.60;99.90
67752;DHT22;54551;51.068;5.826;2022-12-05T10:30:17;4.60;99.90
67752;DHT22;54551;51.068;5.826;2022-12-05T10:32:55;4.70;99.90
67752;DHT22;54551;51.068;5.826;2022-12-05T10:35:32;4.70;99.90
67752;DHT22;54551;51.068;5.826;2022-12-05T10:38:04;4.70;99.90
67752;DHT22;54551;51.068;5.826;2022-12-05T10:40:43;4.80;99.90
67752;DHT22;54551;51.068;5.826;2022-12-05T10:43:14;4.80;99.90
67752;DHT22;54551;51.068;5.826;2022-12-05T10:45:46;4.80;99.90
67752;DHT22;54551;51.068;5.826;2022-12-05T10:48:15;4.80;99.90
67752;DHT22;54551;51.068;5.826;2022-12-05T10:50:43;4.80;99.90
67752;DHT22;54551;51.068;5.826;2022-12-05T10:55:52;4.90;99.90
67752;DHT22;54551;51.068;5.826;2022-12-05T10:58:19;4.90;99.90
67752;DHT22;54551;51.068;5.826;2022-12-05T11:01:07;4.80;99.90
67752;DHT22;54551;51.068;5.826;2022-12-05T11:03:36;4.90;99.90
67752;DHT22;54551;51.068;5.826;2022-12-05T11:06:22;4.90;99.90
67752;DHT22;54551;51.068;5.826;2022-12-05T11:08:54;4.90;99.90
67752;DHT22;54551;51.068;5.826;2022-12-05T11:11:24;4.90;99.90
67752;DHT22;54551;51.068;5.826;2022-12-05T11:13:53;4.90;99.90
67752;DHT22;54551;51.068;5.826;2022-12-05T11:16:28;4.90;99.90
67752;DHT22;54551;51.068;5.826;2022-12-05T11:18:55;4.90;99.90
67752;DHT22;54551;51.068;5.826;2022-12-05T11:21:20;4.80;99.90
67752;DHT22;54551;51.068;5.826;2022-12-05T11:23:47;4.80;99.90
67752;DHT22;54551;51.068;5.826;2022-12-05T11:26:33;4.90;99.90
67752;DHT22;54551;51.068;5.826;2022-12-05T11:29:03;4.90;99.90
67752;DHT22;54551;51.068;5.826;2022-12-05T11:31:30;4.80;99.90
67752;DHT22;54551;51.068;5.826;2022-12-05T11:34:23;4.80;99.90
67752;DHT22;54551;51.068;5.826;2022-12-05T11:37:06;4.80;99.90
67752;DHT22;54551;51.068;5.826;2022-12-05T11:39:35;4.70;99.90
67752;DHT22;54551;51.068;5.826;2022-12-05T11:55:53;4.80;99.90
67752;DHT22;54551;51.068;5.826;2022-12-05T12:06:41;4.80;99.90
67752;DHT22;54551;51.068;5.826;2022-12-05T12:17:59;4.80;99.90
67752;DHT22;54551;51.068;5.826;2022-12-05T12:20:59;4.90;99.90
67752;DHT22;54551;51.068;5.826;2022-12-05T12:23:38;4.80;99.90
67752;DHT22;54551;51.068;5.826;2022-12-05T12:31:33;4.40;99.90
67752;DHT22;54551;51.068;5.826;2022-12-05T12:37:02;4.30;99.90
67752;DHT22;54551;51.068;5.826;2022-12-05T12:42:26;4.30;99.90
67752;DHT22;54551;51.068;5.826;2022-12-05T12:47:57;4.30;99.90
67752;DHT22;54551;51.068;5.826;2022-12-05T12:50:31;4.30;99.90
67752;DHT22;54551;51.068;5.826;2022-12-05T12:58:46;4.30;99.90
67752;DHT22;54551;51.068;5.826;2022-12-05T13:01:39;4.30;99.90
67752;DHT22;54551;51.068;5.826;2022-12-05T13:04:09;4.30;99.90
67752;DHT22;54551;51.068;5.826;2022-12-05T13:06:40;4.30;99.90
67752;DHT22;54551;51.068;5.826;2022-12-05T13:09:26;4.30;99.90
67752;DHT22;54551;51.068;5.826;2022-12-05T13:11:55;4.20;99.90
67752;DHT22;54551;51.068;5.826;2022-12-05T13:14:24;4.20;99.90
67752;DHT22;54551;51.068;5.826;2022-12-05T13:16:53;4.20;99.90
67752;DHT22;54551;51.068;5.826;2022-12-05T13:21:53;4.20;99.90
67752;DHT22;54551;51.068;5.826;2022-12-05T13:24:25;4.20;99.90
67752;DHT22;54551;51.068;5.826;2022-12-05T13:26:51;4.20;99.90
67752;DHT22;54551;51.068;5.826;2022-12-05T13:29:26;4.20;99.90
67752;DHT22;54551;51.068;5.826;2022-12-05T13:31:54;4.20;99.90
67752;DHT22;54551;51.068;5.826;2022-12-05T13:37:10;4.20;99.90
67752;DHT22;54551;51.068;5.826;2022-12-05T13:39:56;4.20;99.90
67752;DHT22;54551;51.068;5.826;2022-12-05T13:42:41;4.20;99.90
67752;DHT22;54551;51.068;5.826;2022-12-05T13:45:13;4.20;99.90
67752;DHT22;54551;51.068;5.826;2022-12-05T13:56:00;4.10;99.90
67752;DHT22;54551;51.068;5.826;2022-12-05T13:58:41;4.10;99.90
67752;DHT22;54551;51.068;5.826;2022-12-05T14:03:57;4.00;99.90
67752;DHT22;54551;51.068;5.826;2022-12-05T14:20:26;3.90;99.90
67752;DHT22;54551;51.068;5.826;2022-12-05T14:23:02;3.90;99.90
67752;DHT22;54551;51.068;5.826;2022-12-05T14:33:21;3.80;99.90
67752;DHT22;54551;51.068;5.826;2022-12-05T14:35:49;3.70;99.90
67752;DHT22;54551;51.068;5.826;2022-12-05T14:38:36;3.70;99.90
67752;DHT22;54551;51.068;5.826;2022-12-05T14:41:22;3.70;99.90
67752;DHT22;54551;51.068;5.826;2022-12-05T14:43:54;3.60;99.90
67752;DHT22;54551;51.068;5.826;2022-12-05T14:46:43;3.60;99.90
67752;DHT22;54551;51.068;5.826;2022-12-05T14:49:34;3.60;99.90
67752;DHT22;54551;51.068;5.826;2022-12-05T14:52:09;3.60;99.90
67752;DHT22;54551;51.068;5.826;2022-12-05T14:54:37;3.60;99.90
67752;DHT22;54551;51.068;5.826;2022-12-05T14:57:14;3.60;99.90
67752;DHT22;54551;51.068;5.826;2022-12-05T15:02:23;3.50;99.90
67752;DHT22;54551;51.068;5.826;2022-12-05T15:05:00;3.50;99.90
67752;DHT22;54551;51.068;5.826;2022-12-05T15:07:35;3.50;99.90
67752;DHT22;54551;51.068;5.826;2022-12-05T15:12:53;3.50;99.90
67752;DHT22;54551;51.068;5.826;2022-12-05T15:15:34;3.40;99.90
67752;DHT22;54551;51.068;5.826;2022-12-05T15:18:24;3.40;99.90
67752;DHT22;54551;51.068;5.826;2022-12-05T15:21:07;3.40;99.90
67752;DHT22;54551;51.068;5.826;2022-12-05T15:23:58;3.40;99.90
67752;DHT22;54551;51.068;5.826;2022-12-05T15:31:55;3.30;99.90
67752;DHT22;54551;51.068;5.826;2022-12-05T15:34:44;3.30;99.90
67752;DHT22;54551;51.068;5.826;2022-12-05T15:40:00;3.30;99.90
67752;DHT22;54551;51.068;5.826;2022-12-05T15:42:34;3.30;99.90
67752;DHT22;54551;51.068;5.826;2022-12-05T15:55:53;3.30;99.90
67752;DHT22;54551;51.068;5.826;2022-12-05T16:03:46;3.40;99.90
67752;DHT22;54551;51.068;5.826;2022-12-05T16:06:34;3.30;99.90
67752;DHT22;54551;51.068;5.826;2022-12-05T16:09:16;3.30;99.90
67752;DHT22;54551;51.068;5.826;2022-12-05T16:11:53;3.30;99.90
67752;DHT22;54551;51.068;5.826;2022-12-05T16:14:21;3.30;99.90
67752;DHT22;54551;51.068;5.826;2022-12-05T16:16:47;3.30;99.90
67752;DHT22;54551;51.068;5.826;2022-12-05T16:19:16;3.30;99.90
67752;DHT22;54551;51.068;5.826;2022-12-05T16:21:46;3.40;99.90
67752;DHT22;54551;51.068;5.826;2022-12-05T16:24:20;3.40;99.90
67752;DHT22;54551;51.068;5.826;2022-12-05T16:26:58;3.40;99.90
67752;DHT22;54551;51.068;5.826;2022-12-05T16:29:32;3.40;99.90
67752;DHT22;54551;51.068;5.826;2022-12-05T16:32:00;3.40;99.90
67752;DHT22;54551;51.068;5.826;2022-12-05T16:34:28;3.40;99.90
67752;DHT22;54551;51.068;5.826;2022-12-05T16:36:55;3.40;99.90
67752;DHT22;54551;51.068;5.826;2022-12-05T16:39:22;3.40;99.90
67752;DHT22;54551;51.068;5.826;2022-12-05T16:41:49;3.40;99.90
67752;DHT22;54551;51.068;5.826;2022-12-05T16:44:51;3.50;99.90
67752;DHT22;54551;51.068;5.826;2022-12-05T16:50:29;3.50;99.90
67752;DHT22;54551;51.068;5.826;2022-12-05T16:53:20;3.50;99.90
67752;DHT22;54551;51.068;5.826;2022-12-05T16:55:46;3.40;99.90
67752;DHT22;54551;51.068;5.826;2022-12-05T16:58:19;3.50;99.90
67752;DHT22;54551;51.068;5.826;2022-12-05T17:00:45;3.50;99.90
67752;DHT22;54551;51.068;5.826;2022-12-05T17:03:12;3.40;99.90
67752;DHT22;54551;51.068;5.826;2022-12-05T17:05:38;3.40;99.90
67752;DHT22;54551;51.068;5.826;2022-12-05T17:08:05;3.40;99.90
67752;DHT22;54551;51.068;5.826;2022-12-05T17:10:31;3.40;99.90
67752;DHT22;54551;51.068;5.826;2022-12-05T17:12:57;3.40;99.90
67752;DHT22;54551;51.068;5.826;2022-12-05T17:15:24;3.50;99.90
67752;DHT22;54551;51.068;5.826;2022-12-05T17:17:51;3.40;99.90
67752;DHT22;54551;51.068;5.826;2022-12-05T17:20:17;3.40;99.90
67752;DHT22;54551;51.068;5.826;2022-12-05T17:22:43;3.40;99.90
67752;DHT22;54551;51.068;5.826;2022-12-05T17:27:46;3.40;99.90
67752;DHT22;54551;51.068;5.826;2022-12-05T17:30:12;3.30;99.90
67752;DHT22;54551;51.068;5.826;2022-12-05T17:32:38;3.30;99.90
67752;DHT22;54551;51.068;5.826;2022-12-05T17:35:12;3.30;99.90
67752;DHT22;54551;51.068;5.826;2022-12-05T17:37:39;3.30;99.90
67752;DHT22;54551;51.068;5.826;2022-12-05T17:40:06;3.30;99.90
67752;DHT22;54551;51.068;5.826;2022-12-05T17:42:31;3.30;99.90
67752;DHT22;54551;51.068;5.826;2022-12-05T17:44:57;3.30;99.90
67752;DHT22;54551;51.068;5.826;2022-12-05T17:47:23;3.30;99.90
67752;DHT22;54551;51.068;5.826;2022-12-05T17:49:49;3.30;99.90
67752;DHT22;54551;51.068;5.826;2022-12-05T17:52:16;3.30;99.90
67752;DHT22;54551;51.068;5.826;2022-12-05T17:54:43;3.30;99.90
67752;DHT22;54551;51.068;5.826;2022-12-05T17:57:09;3.30;99.90
67752;DHT22;54551;51.068;5.826;2022-12-05T17:59:35;3.40;99.90
67752;DHT22;54551;51.068;5.826;2022-12-05T18:02:02;3.40;99.90
67752;DHT22;54551;51.068;5.826;2022-12-05T18:04:30;3.40;99.90
67752;DHT22;54551;51.068;5.826;2022-12-05T18:06:55;3.50;99.90
67752;DHT22;54551;51.068;5.826;2022-12-05T18:09:21;3.50;99.90
67752;DHT22;54551;51.068;5.826;2022-12-05T18:11:48;3.50;99.90
67752;DHT22;54551;51.068;5.826;2022-12-05T18:14:14;3.50;99.90
67752;DHT22;54551;51.068;5.826;2022-12-05T18:16:40;3.50;99.90
67752;DHT22;54551;51.068;5.826;2022-12-05T18:19:06;3.50;99.90
67752;DHT22;54551;51.068;5.826;2022-12-05T18:21:33;3.50;99.90
67752;DHT22;54551;51.068;5.826;2022-12-05T18:23:59;3.50;99.90
67752;DHT22;54551;51.068;5.826;2022-12-05T18:26:25;3.40;99.90
67752;DHT22;54551;51.068;5.826;2022-12-05T18:28:51;3.50;99.90
67752;DHT22;54551;51.068;5.826;2022-12-05T18:31:19;3.50;99.90
67752;DHT22;54551;51.068;5.826;2022-12-05T18:33:45;3.40;99.90
67752;DHT22;54551;51.068;5.826;2022-12-05T18:36:17;3.40;99.90
67752;DHT22;54551;51.068;5.826;2022-12-05T18:38:52;3.40;99.90
67752;DHT22;54551;51.068;5.826;2022-12-05T18:41:19;3.40;99.90
67752;DHT22;54551;51.068;5.826;2022-12-05T18:43:45;3.40;99.90
67752;DHT22;54551;51.068;5.826;2022-12-05T18:46:11;3.40;99.90
67752;DHT22;54551;51.068;5.826;2022-12-05T18:48:37;3.40;99.90
67752;DHT22;54551;51.068;5.826;2022-12-05T18:53:33;3.40;99.90
67752;DHT22;54551;51.068;5.826;2022-12-05T18:56:04;3.50;99.90
67752;DHT22;54551;51.068;5.826;2022-12-05T18:58:30;3.50;99.90
67752;DHT22;54551;51.068;5.826;2022-12-05T19:01:09;3.50;99.90
67752;DHT22;54551;51.068;5.826;2022-12-05T19:03:37;3.60;99.90
67752;DHT22;54551;51.068;5.826;2022-12-05T19:06:20;3.60;99.90
67752;DHT22;54551;51.068;5.826;2022-12-05T19:08:47;3.60;99.90
67752;DHT22;54551;51.068;5.826;2022-12-05T19:11:15;3.60;99.90
67752;DHT22;54551;51.068;5.826;2022-12-05T19:13:41;3.60;99.90
67752;DHT22;54551;51.068;5.826;2022-12-05T19:16:10;3.60;99.90
67752;DHT22;54551;51.068;5.826;2022-12-05T19:18:44;3.60;99.90
67752;DHT22;54551;51.068;5.826;2022-12-05T19:21:10;3.70;99.90
67752;DHT22;54551;51.068;5.826;2022-12-05T19:23:37;3.70;99.90
67752;DHT22;54551;51.068;5.826;2022-12-05T19:26:05;3.70;99.90